Briefing drone pour Unieux

Rechercher une autre localisation

Conditions de vol :


Nous sommes le : Mercredi 14 avril 2021
Il est 22:10 UTC (00:10 LT)

Lever de soleil : 04:32 UTC (06:32 LT)
Coucher de soleil : 18:54 UTC (20:54 LT)

Météo

L'essentiel des conditions de vol

VIGILANCE MÉTÉO FRANCE - Loire (42)
Pas de vigilances particulieres
CARTE TEMSI
CARTES DES FRONTS
METAR de LFMH
LFMH 132200Z AUTO VRB01KT CAVOK 02/M02 Q1026

Date d'émission: 13/04/2021
Heure d'émission: 22:00 UTC
Vent: Variable 1 KT (2 km/h)
Visibilité horizontale: > 10 km
Plafond : Plafond et visibilité OK (CAVOK)
Température: 2 °C
Point de rosée: -2 °C
Humidité: 75%
Pression (QNH): 1026 hPa
TAF de LFMH
LFMH 131905Z 1319/1412 CNL

Conditions prévues :

Heure d'émission : Bulletin éffectué le 13 à 19:00 UTC
Prévision : Valide du 13 a 19:00 UTC au 14 a 12:00 UTC
Nuages : à 0ft (0 m)
WEBCAM POUR UNIEUX

Réglementation

Voler en sécurité

CARTES AERONAUTIQUE 1/500.000
CARTES VAC (LFMH)
SUP AIP




Chargement des AIP...
NOTAM (UNIEUX + Terrain à proximité / FIR )




Chargement des NOTAMS...
CONTACT PREFECTURE 42


Avertissement : Les données mises à disposition sont indicatives. Oxygène Drone ne pourra être tenu responsable de dégâts causés aux biens et aux personnes.